sensor_id;sensor_type;location;lat;lon;timestamp;pressure;altitude;pressure_sealevel;temperature;humidity
62152;BME280;48139;47.474;19.034;2023-02-15T04:47:48;102153.53;;;0.40;100.00
62152;BME280;48139;47.474;19.034;2023-02-15T04:50:52;102153.53;;;0.40;100.00
62152;BME280;48139;47.474;19.034;2023-02-15T04:53:54;102163.41;;;-0.12;100.00
62152;BME280;48139;47.474;19.034;2023-02-15T04:56:58;102164.09;;;-0.19;100.00
62152;BME280;48139;47.474;19.034;2023-02-15T05:00:01;102163.78;;;-0.31;100.00
62152;BME280;48139;47.474;19.034;2023-02-15T05:03:06;102158.50;;;-0.36;100.00
62152;BME280;48139;47.474;19.034;2023-02-15T05:06:08;102161.81;;;-0.40;100.00
62152;BME280;48139;47.474;19.034;2023-02-15T05:09:11;102162.59;;;-0.44;100.00
62152;BME280;48139;47.474;19.034;2023-02-15T05:12:14;102160.84;;;-0.44;100.00
62152;BME280;48139;47.474;19.034;2023-02-15T05:15:17;102162.66;;;-0.41;100.00
62152;BME280;48139;47.474;19.034;2023-02-15T05:18:21;102161.72;;;-0.43;100.00
62152;BME280;48139;47.474;19.034;2023-02-15T05:21:24;102159.97;;;-0.46;100.00
62152;BME280;48139;47.474;19.034;2023-02-15T05:24:27;102164.12;;;-0.51;100.00
62152;BME280;48139;47.474;19.034;2023-02-15T05:27:48;102176.94;;;-0.52;100.00
62152;BME280;48139;47.474;19.034;2023-02-15T05:34:14;102182.09;;;-0.52;100.00
62152;BME280;48139;47.474;19.034;2023-02-15T05:37:17;102193.81;;;-0.62;100.00
62152;BME280;48139;47.474;19.034;2023-02-15T05:40:19;102194.53;;;-0.67;100.00
62152;BME280;48139;47.474;19.034;2023-02-15T05:43:22;102203.59;;;-0.50;100.00
62152;BME280;48139;47.474;19.034;2023-02-15T05:46:25;102197.59;;;-0.49;100.00
62152;BME280;48139;47.474;19.034;2023-02-15T05:49:28;102199.78;;;-0.64;100.00
62152;BME280;48139;47.474;19.034;2023-02-15T05:52:31;102195.34;;;-0.68;100.00
62152;BME280;48139;47.474;19.034;2023-02-15T05:55:33;102196.88;;;-0.75;100.00
62152;BME280;48139;47.474;19.034;2023-02-15T05:58:38;102191.06;;;-0.68;100.00
62152;BME280;48139;47.474;19.034;2023-02-15T06:01:41;102198.06;;;-0.64;100.00
62152;BME280;48139;47.474;19.034;2023-02-15T06:04:44;102206.37;;;-0.43;100.00
62152;BME280;48139;47.474;19.034;2023-02-15T06:07:46;102207.19;;;-0.44;100.00
62152;BME280;48139;47.474;19.034;2023-02-15T06:10:49;102208.06;;;-0.43;100.00
62152;BME280;48139;47.474;19.034;2023-02-15T06:13:52;102206.09;;;-0.53;100.00
62152;BME280;48139;47.474;19.034;2023-02-15T06:16:55;102204.28;;;-0.57;100.00
62152;BME280;48139;47.474;19.034;2023-02-15T06:19:57;102211.28;;;-0.52;100.00
62152;BME280;48139;47.474;19.034;2023-02-15T06:23:00;102209.00;;;-0.41;100.00
62152;BME280;48139;47.474;19.034;2023-02-15T06:26:03;102206.63;;;-0.33;100.00
62152;BME280;48139;47.474;19.034;2023-02-15T06:29:06;102201.84;;;-0.20;100.00
62152;BME280;48139;47.474;19.034;2023-02-15T06:32:09;102202.00;;;-0.14;100.00
62152;BME280;48139;47.474;19.034;2023-02-15T06:35:12;102206.41;;;-0.10;100.00
62152;BME280;48139;47.474;19.034;2023-02-15T06:38:15;102210.25;;;0.06;100.00
62152;BME280;48139;47.474;19.034;2023-02-15T06:41:17;102206.97;;;0.12;100.00
62152;BME280;48139;47.474;19.034;2023-02-15T06:44:20;102212.28;;;0.19;100.00
62152;BME280;48139;47.474;19.034;2023-02-15T06:47:23;102215.44;;;0.42;100.00
62152;BME280;48139;47.474;19.034;2023-02-15T06:50:26;102216.50;;;0.52;100.00
62152;BME280;48139;47.474;19.034;2023-02-15T06:53:29;102217.53;;;0.58;100.00
62152;BME280;48139;47.474;19.034;2023-02-15T06:56:31;102220.66;;;0.81;100.00
62152;BME280;48139;47.474;19.034;2023-02-15T06:59:34;102211.84;;;1.10;100.00
62152;BME280;48139;47.474;19.034;2023-02-15T07:02:37;102212.03;;;1.21;100.00
62152;BME280;48139;47.474;19.034;2023-02-15T07:05:40;102214.72;;;1.26;100.00
62152;BME280;48139;47.474;19.034;2023-02-15T07:08:43;102215.59;;;1.25;100.00
62152;BME280;48139;47.474;19.034;2023-02-15T07:11:46;102211.59;;;1.40;100.00
62152;BME280;48139;47.474;19.034;2023-02-15T07:15:12;102211.75;;;1.48;100.00
62152;BME280;48139;47.474;19.034;2023-02-15T07:18:15;102203.31;;;1.58;100.00
62152;BME280;48139;47.474;19.034;2023-02-15T07:21:18;102213.84;;;1.67;100.00
62152;BME280;48139;47.474;19.034;2023-02-15T07:24:21;102213.00;;;1.70;100.00
62152;BME280;48139;47.474;19.034;2023-02-15T07:27:24;102208.97;;;1.84;100.00
62152;BME280;48139;47.474;19.034;2023-02-15T07:30:27;102209.06;;;1.88;100.00
62152;BME280;48139;47.474;19.034;2023-02-15T07:33:31;102208.53;;;2.08;100.00
62152;BME280;48139;47.474;19.034;2023-02-15T07:36:34;102202.53;;;2.09;100.00
62152;BME280;48139;47.474;19.034;2023-02-15T07:39:37;102199.34;;;2.23;100.00
62152;BME280;48139;47.474;19.034;2023-02-15T07:42:40;102203.94;;;2.41;100.00
62152;BME280;48139;47.474;19.034;2023-02-15T07:45:43;102206.81;;;2.61;100.00
62152;BME280;48139;47.474;19.034;2023-02-15T07:48:46;102195.72;;;2.69;100.00
62152;BME280;48139;47.474;19.034;2023-02-15T07:51:48;102197.59;;;2.78;100.00
62152;BME280;48139;47.474;19.034;2023-02-15T07:54:51;102192.66;;;2.96;100.00
62152;BME280;48139;47.474;19.034;2023-02-15T07:57:54;102197.09;;;3.06;100.00
62152;BME280;48139;47.474;19.034;2023-02-15T08:00:56;102197.28;;;3.18;100.00
62152;BME280;48139;47.474;19.034;2023-02-15T08:03:59;102198.28;;;3.33;100.00
62152;BME280;48139;47.474;19.034;2023-02-15T08:07:02;102188.16;;;3.51;100.00
62152;BME280;48139;47.474;19.034;2023-02-15T08:10:05;102190.09;;;3.72;100.00
62152;BME280;48139;47.474;19.034;2023-02-15T08:13:08;102183.34;;;3.86;100.00
62152;BME280;48139;47.474;19.034;2023-02-15T08:16:11;102191.25;;;4.01;100.00
62152;BME280;48139;47.474;19.034;2023-02-15T08:19:17;102180.94;;;4.09;100.00
62152;BME280;48139;47.474;19.034;2023-02-15T08:22:20;102177.50;;;4.08;100.00
62152;BME280;48139;47.474;19.034;2023-02-15T08:25:23;102181.56;;;4.97;100.00
62152;BME280;48139;47.474;19.034;2023-02-15T08:28:26;102171.22;;;7.34;91.77
62152;BME280;48139;47.474;19.034;2023-02-15T08:31:29;102166.50;;;9.61;69.76
62152;BME280;48139;47.474;19.034;2023-02-15T08:34:35;102167.31;;;10.71;59.91
62152;BME280;48139;47.474;19.034;2023-02-15T08:37:38;102165.03;;;12.17;52.75
62152;BME280;48139;47.474;19.034;2023-02-15T08:40:40;102164.25;;;13.42;49.43
62152;BME280;48139;47.474;19.034;2023-02-15T08:43:43;102162.97;;;15.56;42.29
62152;BME280;48139;47.474;19.034;2023-02-15T08:46:47;102159.34;;;15.12;41.15
62152;BME280;48139;47.474;19.034;2023-02-15T08:49:50;102159.13;;;14.95;42.04
62152;BME280;48139;47.474;19.034;2023-02-15T08:52:53;102164.59;;;14.41;42.92
62152;BME280;48139;47.474;19.034;2023-02-15T08:55:57;102162.63;;;12.08;48.03
62152;BME280;48139;47.474;19.034;2023-02-15T08:59:00;102163.00;;;11.93;51.04
62152;BME280;48139;47.474;19.034;2023-02-15T09:02:03;102157.50;;;14.15;44.58
62152;BME280;48139;47.474;19.034;2023-02-15T09:05:06;102150.22;;;13.69;44.82
62152;BME280;48139;47.474;19.034;2023-02-15T09:08:09;102148.44;;;13.12;46.28
62152;BME280;48139;47.474;19.034;2023-02-15T09:11:15;102151.28;;;13.05;46.17
62152;BME280;48139;47.474;19.034;2023-02-15T09:14:24;102159.19;;;12.40;47.85
62152;BME280;48139;47.474;19.034;2023-02-15T09:17:28;102156.94;;;14.05;44.49
62152;BME280;48139;47.474;19.034;2023-02-15T09:20:34;102156.84;;;14.86;42.44
62152;BME280;48139;47.474;19.034;2023-02-15T09:23:37;102157.72;;;13.55;44.71
62152;BME280;48139;47.474;19.034;2023-02-15T09:26:42;102155.13;;;11.93;49.29
62152;BME280;48139;47.474;19.034;2023-02-15T09:29:48;102155.81;;;10.79;53.26
62152;BME280;48139;47.474;19.034;2023-02-15T09:32:50;102160.25;;;9.68;58.63
62152;BME280;48139;47.474;19.034;2023-02-15T09:35:53;102158.75;;;8.85;65.62
62152;BME280;48139;47.474;19.034;2023-02-15T09:38:58;102151.44;;;8.29;69.27
62152;BME280;48139;47.474;19.034;2023-02-15T09:42:17;102157.97;;;7.70;73.79
62152;BME280;48139;47.474;19.034;2023-02-15T09:45:26;102152.03;;;7.47;76.94
62152;BME280;48139;47.474;19.034;2023-02-15T09:48:39;102139.94;;;7.32;77.86
62152;BME280;48139;47.474;19.034;2023-02-15T09:55:44;102137.41;;;7.24;80.09
62152;BME280;48139;47.474;19.034;2023-02-15T10:02:27;102138.19;;;7.42;80.49
62152;BME280;48139;47.474;19.034;2023-02-15T10:16:19;102124.91;;;7.75;76.37
62152;BME280;48139;47.474;19.034;2023-02-15T10:26:43;102113.62;;;7.70;75.19
62152;BME280;48139;47.474;19.034;2023-02-15T10:30:02;102112.69;;;7.82;76.05
62152;BME280;48139;47.474;19.034;2023-02-15T10:33:37;102113.38;;;8.03;76.22
62152;BME280;48139;47.474;19.034;2023-02-15T10:36:53;102106.44;;;8.04;74.69
62152;BME280;48139;47.474;19.034;2023-02-15T10:44:07;102112.47;;;8.09;72.31
62152;BME280;48139;47.474;19.034;2023-02-15T10:50:50;102104.75;;;7.98;71.94
62152;BME280;48139;47.474;19.034;2023-02-15T10:57:04;102097.66;;;8.11;73.02
62152;BME280;48139;47.474;19.034;2023-02-15T11:13:32;102075.66;;;8.38;73.51
62152;BME280;48139;47.474;19.034;2023-02-15T11:16:40;102074.66;;;8.51;70.61
62152;BME280;48139;47.474;19.034;2023-02-15T11:23:01;102057.09;;;8.62;69.27
62152;BME280;48139;47.474;19.034;2023-02-15T11:26:10;102054.47;;;8.65;68.89
62152;BME280;48139;47.474;19.034;2023-02-15T11:29:34;102061.59;;;8.51;69.43
62152;BME280;48139;47.474;19.034;2023-02-15T11:32:43;102055.56;;;8.47;69.23
62152;BME280;48139;47.474;19.034;2023-02-15T11:36:17;102044.09;;;8.56;69.50
62152;BME280;48139;47.474;19.034;2023-02-15T11:39:23;102042.22;;;8.70;68.92
62152;BME280;48139;47.474;19.034;2023-02-15T11:42:31;102040.37;;;8.78;68.76
62152;BME280;48139;47.474;19.034;2023-02-15T11:45:35;102031.41;;;8.98;66.97
62152;BME280;48139;47.474;19.034;2023-02-15T11:48:38;102023.41;;;9.08;66.00
62152;BME280;48139;47.474;19.034;2023-02-15T11:51:41;102019.25;;;8.94;65.97
62152;BME280;48139;47.474;19.034;2023-02-15T11:54:47;102020.19;;;8.89;66.64
62152;BME280;48139;47.474;19.034;2023-02-15T12:01:36;102015.72;;;8.98;66.61
62152;BME280;48139;47.474;19.034;2023-02-15T12:04:42;102013.06;;;9.01;66.67
62152;BME280;48139;47.474;19.034;2023-02-15T12:07:52;102008.75;;;8.98;65.89
62152;BME280;48139;47.474;19.034;2023-02-15T12:11:09;102011.28;;;9.04;65.79
62152;BME280;48139;47.474;19.034;2023-02-15T12:14:14;102007.72;;;9.07;64.84
62152;BME280;48139;47.474;19.034;2023-02-15T12:20:51;102005.56;;;8.75;67.28
62152;BME280;48139;47.474;19.034;2023-02-15T12:23:58;102001.03;;;8.89;66.80
62152;BME280;48139;47.474;19.034;2023-02-15T12:27:13;101988.63;;;9.03;66.26
62152;BME280;48139;47.474;19.034;2023-02-15T12:30:25;101984.88;;;9.21;64.91
62152;BME280;48139;47.474;19.034;2023-02-15T12:33:34;101984.09;;;9.16;64.89
62152;BME280;48139;47.474;19.034;2023-02-15T12:36:44;101977.88;;;9.23;64.96
62152;BME280;48139;47.474;19.034;2023-02-15T12:39:58;101976.19;;;9.19;65.25
62152;BME280;48139;47.474;19.034;2023-02-15T12:43:01;101975.97;;;9.32;64.66
62152;BME280;48139;47.474;19.034;2023-02-15T12:46:21;101972.47;;;9.32;64.23
62152;BME280;48139;47.474;19.034;2023-02-15T12:49:25;101962.88;;;9.34;63.90
62152;BME280;48139;47.474;19.034;2023-02-15T12:52:28;101963.94;;;9.22;64.06
62152;BME280;48139;47.474;19.034;2023-02-15T12:55:30;101955.31;;;9.17;63.37
62152;BME280;48139;47.474;19.034;2023-02-15T12:58:35;101949.44;;;9.00;64.47
62152;BME280;48139;47.474;19.034;2023-02-15T13:01:38;101947.50;;;9.14;63.69
62152;BME280;48139;47.474;19.034;2023-02-15T13:04:48;101941.06;;;9.35;63.95
62152;BME280;48139;47.474;19.034;2023-02-15T13:07:56;101945.16;;;9.50;62.52
62152;BME280;48139;47.474;19.034;2023-02-15T13:11:03;101935.53;;;9.52;62.64
62152;BME280;48139;47.474;19.034;2023-02-15T13:14:18;101937.28;;;9.51;61.47
62152;BME280;48139;47.474;19.034;2023-02-15T13:17:27;101939.16;;;9.45;61.45
62152;BME280;48139;47.474;19.034;2023-02-15T13:20:34;101929.63;;;9.41;61.87
62152;BME280;48139;47.474;19.034;2023-02-15T13:23:43;101921.81;;;9.39;62.37
62152;BME280;48139;47.474;19.034;2023-02-15T13:26:48;101922.56;;;9.46;62.72
62152;BME280;48139;47.474;19.034;2023-02-15T13:29:54;101919.75;;;9.56;62.53
62152;BME280;48139;47.474;19.034;2023-02-15T13:33:06;101920.56;;;9.61;62.17
62152;BME280;48139;47.474;19.034;2023-02-15T13:43:28;101917.59;;;9.80;61.17
62152;BME280;48139;47.474;19.034;2023-02-15T13:56:40;101904.50;;;9.80;61.00
62152;BME280;48139;47.474;19.034;2023-02-15T14:07:07;101899.94;;;9.91;57.50
62152;BME280;48139;47.474;19.034;2023-02-15T14:13:34;101902.69;;;9.83;58.30
62152;BME280;48139;47.474;19.034;2023-02-15T14:17:14;101902.88;;;9.74;57.84
62152;BME280;48139;47.474;19.034;2023-02-15T14:21:03;101901.25;;;9.67;58.25
62152;BME280;48139;47.474;19.034;2023-02-15T14:24:33;101900.31;;;9.69;59.71
62152;BME280;48139;47.474;19.034;2023-02-15T14:30:49;101903.91;;;9.65;60.02
62152;BME280;48139;47.474;19.034;2023-02-15T14:33:55;101905.75;;;9.60;60.10
62152;BME280;48139;47.474;19.034;2023-02-15T14:36:58;101908.41;;;9.57;61.56
62152;BME280;48139;47.474;19.034;2023-02-15T14:44:17;101899.75;;;9.55;63.09
62152;BME280;48139;47.474;19.034;2023-02-15T14:47:31;101904.34;;;9.43;63.18
62152;BME280;48139;47.474;19.034;2023-02-15T14:53:39;101901.00;;;9.31;63.29
62152;BME280;48139;47.474;19.034;2023-02-15T14:56:45;101903.81;;;9.22;64.36
62152;BME280;48139;47.474;19.034;2023-02-15T14:59:56;101896.94;;;9.15;64.38
62152;BME280;48139;47.474;19.034;2023-02-15T15:03:00;101899.56;;;9.15;64.75
62152;BME280;48139;47.474;19.034;2023-02-15T15:06:04;101895.38;;;9.05;64.02
62152;BME280;48139;47.474;19.034;2023-02-15T15:09:19;101888.53;;;8.98;64.88
62152;BME280;48139;47.474;19.034;2023-02-15T15:18:46;101883.44;;;8.87;67.71
62152;BME280;48139;47.474;19.034;2023-02-15T15:27:56;101881.97;;;8.71;70.23
62152;BME280;48139;47.474;19.034;2023-02-15T15:37:50;101882.44;;;8.38;72.55
62152;BME280;48139;47.474;19.034;2023-02-15T15:41:05;101882.69;;;8.18;74.68
62152;BME280;48139;47.474;19.034;2023-02-15T15:47:49;101887.28;;;7.99;76.73
62152;BME280;48139;47.474;19.034;2023-02-15T15:51:19;101884.03;;;7.76;78.59
62152;BME280;48139;47.474;19.034;2023-02-15T15:54:24;101877.28;;;7.58;81.25
62152;BME280;48139;47.474;19.034;2023-02-15T15:57:33;101887.00;;;7.44;83.40
62152;BME280;48139;47.474;19.034;2023-02-15T16:00:44;101878.34;;;7.39;85.00
62152;BME280;48139;47.474;19.034;2023-02-15T16:03:53;101881.00;;;7.36;85.00
62152;BME280;48139;47.474;19.034;2023-02-15T16:06:57;101875.91;;;7.22;87.25
62152;BME280;48139;47.474;19.034;2023-02-15T16:10:16;101874.25;;;7.15;88.28
62152;BME280;48139;47.474;19.034;2023-02-15T16:13:21;101877.91;;;6.92;89.98
62152;BME280;48139;47.474;19.034;2023-02-15T16:16:28;101871.94;;;6.76;92.81
62152;BME280;48139;47.474;19.034;2023-02-15T16:19:38;101876.28;;;6.78;93.15
62152;BME280;48139;47.474;19.034;2023-02-15T16:22:41;101878.94;;;6.71;93.27
62152;BME280;48139;47.474;19.034;2023-02-15T16:29:19;101879.00;;;6.59;95.16
62152;BME280;48139;47.474;19.034;2023-02-15T16:32:28;101874.72;;;6.50;95.06
62152;BME280;48139;47.474;19.034;2023-02-15T16:35:31;101887.06;;;6.15;99.15
62152;BME280;48139;47.474;19.034;2023-02-15T16:41:46;101882.78;;;5.94;100.00
62152;BME280;48139;47.474;19.034;2023-02-15T16:48:01;101884.53;;;5.81;100.00
